Harbor Emperor — WCY6430 — position and weather

sailwx.info

Track history (hours):
 
Tides and Currents Weather Stations Pressure Air Temp Water Temp Dewpoint Dewpoint Depression Visibility Wind Speed Wind Dir Waves Ship Positions

Harbor Emperor

Owner: BLUE & GOLD FLEET, SAN FRANCISCO, CA. More information available from US FCC via Universal Licensing System and Coast Guard Vessel Documentation Center.

Last reported at 2017-Jul-25 16:29 UTC. Time now 2017-Jul-25 16:39 UTC.
Position N 37°49' W 122°25'.

Length 31 m.

Type: Passenger vessel. MMSI: 366985270.

Date/timePositionNaut miles runAvg speedWind from/ knotsBaromVisibWave heightAir tempDewpointWater temp
2017-Jul-25 16:29N 37°49' W 122°25'0 0.0
2017-Jul-25 15:59N 37°49' W 122°25'0 0.0
2017-Jul-25 15:29N 37°49' W 122°25'0 0.0
2017-Jul-25 14:59N 37°49' W 122°25'0 0.0
2017-Jul-25 13:56N 37°49' W 122°25'0 0.0
2017-Jul-25 13:26N 37°49' W 122°25'0 0.0
2017-Jul-25 12:56N 37°49' W 122°25'0 0.0
2017-Jul-25 12:26N 37°49' W 122°25'0 0.0
2017-Jul-25 11:56N 37°49' W 122°25'0 0.0
2017-Jul-25 11:29N 37°49' W 122°25'0 0.0
2017-Jul-25 10:59N 37°49' W 122°25'0 0.0
2017-Jul-25 10:26N 37°49' W 122°25'0 0.0
2017-Jul-25 09:56N 37°49' W 122°25'0 0.0
2017-Jul-25 09:26N 37°49' W 122°25'0 0.0
2017-Jul-25 08:59N 37°49' W 122°25'0 0.0
2017-Jul-25 08:26N 37°49' W 122°25'0 0.0
2017-Jul-25 07:59N 37°49' W 122°25'0 0.0
2017-Jul-25 07:29N 37°49' W 122°25'0 0.0
2017-Jul-25 06:56N 37°49' W 122°25'0 0.0
2017-Jul-25 06:29N 37°49' W 122°25'0 0.0
2017-Jul-25 05:59N 37°49' W 122°25'0 0.0
2017-Jul-25 05:29N 37°49' W 122°25'0 0.0
2017-Jul-25 04:59N 37°49' W 122°25'0 0.0
2017-Jul-25 04:29N 37°49' W 122°25'0 0.0
2017-Jul-25 03:59N 37°49' W 122°25'0 0.0
2017-Jul-25 03:29N 37°49' W 122°25'0 0.0
2017-Jul-25 02:59N 37°49' W 122°25'0 0.0
2017-Jul-25 02:26N 37°49' W 122°25'0 0.0
2017-Jul-25 01:55N 37°49' W 122°25'2 5.1
2017-Jul-25 01:30N 37°50' W 122°27'2 4.3
2017-Jul-25 01:01N 37°49' W 122°25'1 1.9
2017-Jul-25 00:30N 37°49' W 122°25'1 2.9
2017-Jul-25 00:01N 37°49' W 122°27'2 4.2
2017-Jul-24 23:30N 37°49' W 122°25'0 0.0
2017-Jul-24 23:00N 37°49' W 122°25'3 5.3
2017-Jul-24 22:30N 37°50' W 122°28'3 5.2
2017-Jul-24 22:00N 37°49' W 122°25'0 0.0
2017-Jul-24 21:30N 37°49' W 122°25'0 0.0
2017-Jul-24 21:00N 37°49' W 122°25'3 5.5
2017-Jul-24 20:31N 37°49' W 122°28'3 5.5
2017-Jul-24 20:01N 37°49' W 122°25'1 2.0
2017-Jul-24 19:31N 37°48' W 122°23'2 3.8
2017-Jul-24 19:00N 37°50' W 122°25'1 2.1
2017-Jul-24 18:30N 37°49' W 122°26'1 2.5
2017-Jul-24 17:58N 37°49' W 122°25'0 0.0
2017-Jul-24 17:28N 37°49' W 122°25'0 0.0
2017-Jul-24 16:58N 37°49' W 122°25'0 0.0
2017-Jul-24 16:28N 37°49' W 122°25'0 0.0
2017-Jul-24 15:46N 37°49' W 122°25'0 0.0
2017-Jul-24 12:46N 37°49' W 122°25'0 0.0
2017-Jul-24 12:28N 37°49' W 122°25'0 0.0
2017-Jul-24 11:58N 37°49' W 122°25'0 0.0
2017-Jul-24 11:28N 37°49' W 122°25'0 0.0
2017-Jul-24 10:58N 37°49' W 122°25'0 0.0
2017-Jul-24 10:28N 37°49' W 122°25'0 0.0
2017-Jul-24 09:58N 37°49' W 122°25'0 0.0
2017-Jul-24 09:28N 37°49' W 122°25'0 0.0
2017-Jul-24 08:58N 37°49' W 122°25'0 0.0
2017-Jul-24 08:28N 37°49' W 122°25'0 0.0
2017-Jul-24 07:58N 37°49' W 122°25'0 0.0
2017-Jul-24 07:28N 37°49' W 122°25'0 0.0
2017-Jul-24 06:58N 37°49' W 122°25'0 0.0
2017-Jul-24 06:28N 37°49' W 122°25'0 0.0
2017-Jul-24 05:58N 37°49' W 122°25'0 0.0
2017-Jul-24 05:28N 37°49' W 122°25'0 0.0
2017-Jul-24 04:58N 37°49' W 122°25'0 0.0
2017-Jul-24 04:28N 37°49' W 122°25'0 0.0
2017-Jul-24 03:58N 37°49' W 122°25'0 0.0
2017-Jul-24 03:28N 37°49' W 122°25'0 0.0
2017-Jul-24 02:58N 37°49' W 122°25'0 0.0
2017-Jul-24 02:28N 37°49' W 122°25'0 0.0
2017-Jul-24 02:00N 37°49' W 122°25'0 0.0
2017-Jul-24 01:30N 37°49' W 122°25'2 3.7
2017-Jul-24 01:00N 37°50' W 122°27'2 3.7
2017-Jul-24 00:30N 37°49' W 122°25'1 1.0
2017-Jul-24 00:00N 37°49' W 122°25'3 5.8
2017-Jul-23 23:31N 37°49' W 122°28'3 5.8
2017-Jul-23 23:00N 37°49' W 122°25'0 0.0
2017-Jul-23 22:30N 37°49' W 122°25'1 1.6
2017-Jul-23 22:00N 37°48' W 122°24'2 4.4
2017-Jul-23 21:30N 37°50' W 122°26'2 3.4
2017-Jul-23 21:00N 37°49' W 122°28'2 4.7
2017-Jul-23 20:30N 37°49' W 122°25'0 0.0
2017-Jul-23 20:00N 37°49' W 122°25'2 4.6
2017-Jul-23 19:30N 37°49' W 122°27'2 4.6
2017-Jul-23 19:00N 37°49' W 122°25'0 0.5
2017-Jul-23 18:31N 37°49' W 122°24'2 4.7
2017-Jul-23 18:00N 37°49' W 122°27'2 4.3
2017-Jul-23 17:30N 37°49' W 122°25'0 0.0
2017-Jul-23 16:59N 37°49' W 122°25'0 0.0
2017-Jul-23 16:29N 37°49' W 122°25'0 0.0
2017-Jul-23 15:56N 37°49' W 122°25'0 0.0
2017-Jul-23 15:26N 37°49' W 122°25'0 0.0
2017-Jul-23 14:53N 37°49' W 122°25'0 0.0
2017-Jul-23 14:29N 37°49' W 122°25'0 0.0
2017-Jul-23 13:59N 37°49' W 122°25'0 0.0
2017-Jul-23 13:29N 37°49' W 122°25'0 0.0
2017-Jul-23 12:59N 37°49' W 122°25'0 0.0
2017-Jul-23 12:29N 37°49' W 122°25'0 0.0
2017-Jul-23 11:59N 37°49' W 122°25'0 0.0
2017-Jul-23 11:29N 37°49' W 122°25'0 0.0
2017-Jul-23 10:56N 37°49' W 122°25'0 0.0
2017-Jul-23 10:29N 37°49' W 122°25'0 0.0
2017-Jul-23 09:59N 37°49' W 122°25'0 0.0
2017-Jul-23 09:29N 37°49' W 122°25'0 0.0
2017-Jul-23 08:59N 37°49' W 122°25'0 0.0
2017-Jul-23 08:29N 37°49' W 122°25'0 0.0
2017-Jul-23 07:50N 37°49' W 122°25'0 0.0
2017-Jul-23 07:26N 37°49' W 122°25'0 0.0
2017-Jul-23 06:53N 37°49' W 122°25'0 0.0
2017-Jul-23 06:29N 37°49' W 122°25'0 0.0
2017-Jul-23 05:59N 37°49' W 122°25'0 0.0
2017-Jul-23 05:26N 37°49' W 122°25'0 0.0
2017-Jul-23 04:56N 37°49' W 122°25'0 0.0
2017-Jul-23 04:29N 37°49' W 122°25'0 0.0
2017-Jul-23 03:56N 37°49' W 122°25'0 0.0
2017-Jul-23 03:29N 37°49' W 122°25'0 0.0
2017-Jul-23 02:58N 37°49' W 122°25'2 4.5
2017-Jul-23 02:31N 37°49' W 122°27'2 4.0
2017-Jul-23 02:01N 37°49' W 122°25'0 0.0
2017-Jul-23 01:30N 37°49' W 122°25'2 4.3
2017-Jul-23 01:01N 37°49' W 122°27'2 4.2
2017-Jul-23 00:31N 37°49' W 122°25'0 0.8
2017-Jul-23 00:01N 37°49' W 122°24'3 5.0
2017-Jul-22 23:31N 37°49' W 122°28'2 4.7
2017-Jul-22 23:01N 37°49' W 122°25'0 0.0
2017-Jul-22 22:31N 37°49' W 122°25'1 1.5
2017-Jul-22 22:00N 37°48' W 122°24'2 4.1
2017-Jul-22 21:30N 37°50' W 122°26'2 3.5
2017-Jul-22 21:01N 37°49' W 122°28'2 4.8
2017-Jul-22 20:30N 37°49' W 122°25'0 0.0
2017-Jul-22 19:55N 37°49' W 122°25'2 5.5
2017-Jul-22 19:30N 37°49' W 122°27'2 4.4
2017-Jul-22 18:59N 37°49' W 122°25'0 1.0
2017-Jul-22 18:30N 37°49' W 122°24'2 4.2
2017-Jul-22 18:00N 37°49' W 122°27'2 0.1
2017-Jul-22 02:57N 37°49' W 122°25'3 6.4
2017-Jul-22 02:30N 37°49' W 122°28'3 5.6
2017-Jul-22 02:00N 37°49' W 122°25'0 0.0
2017-Jul-22 01:28N 37°49' W 122°25'3 5.9
2017-Jul-22 01:01N 37°49' W 122°28'3 5.0
2017-Jul-22 00:28N 37°49' W 122°25'1 1.6
2017-Jul-22 00:00N 37°49' W 122°25'2 3.0
2017-Jul-21 23:30N 37°49' W 122°26'1 2.7
2017-Jul-21 22:58N 37°49' W 122°25'0 0.0
2017-Jul-21 22:28N 37°49' W 122°25'1 1.3
2017-Jul-21 22:00N 37°49' W 122°24'1 2.5
2017-Jul-21 21:30N 37°49' W 122°25'1 2.8
2017-Jul-21 21:00N 37°49' W 122°27'2 3.3
2017-Jul-21 20:28N 37°49' W 122°25'0 0.0
2017-Jul-21 19:58N 37°49' W 122°25'2 5.0
2017-Jul-21 19:30N 37°49' W 122°27'2 4.5
2017-Jul-21 19:00N 37°49' W 122°25'0 0.5
2017-Jul-21 18:30N 37°49' W 122°25'2 3.6
2017-Jul-21 18:01N 37°49' W 122°27'2 3.2
2017-Jul-21 17:28N 37°49' W 122°25'0 0.0
2017-Jul-21 02:55N 37°49' W 122°25'2 5.7
2017-Jul-21 02:31N 37°49' W 122°27'2 4.7
2017-Jul-21 02:00N 37°49' W 122°25'0 0.0
2017-Jul-21 01:30N 37°49' W 122°25'3 5.8
2017-Jul-21 01:00N 37°49' W 122°28'3 5.8
2017-Jul-21 00:30N 37°49' W 122°25'1 2.1
2017-Jul-21 00:00N 37°50' W 122°25'1 2.7
2017-Jul-20 23:30N 37°49' W 122°27'2 3.1
2017-Jul-20 23:00N 37°49' W 122°25'0 0.0
2017-Jul-20 22:30N 37°49' W 122°25'1 2.1
2017-Jul-20 22:00N 37°48' W 122°23'2 4.0
2017-Jul-20 21:30N 37°49' W 122°25'2 3.2
2017-Jul-20 21:00N 37°49' W 122°27'2 4.0
2017-Jul-20 20:30N 37°49' W 122°25'0 0.0
2017-Jul-20 20:00N 37°49' W 122°25'2 4.8
2017-Jul-20 19:30N 37°49' W 122°27'2 4.8
2017-Jul-20 19:00N 37°49' W 122°25'1 2.2
2017-Jul-20 18:30N 37°50' W 122°25'1 2.6
2017-Jul-20 18:01N 37°49' W 122°26'1 2.9
2017-Jul-20 17:30N 37°49' W 122°25'0 0.0
2017-Jul-20 02:56N 37°49' W 122°25'2 5.4
2017-Jul-20 02:30N 37°50' W 122°27'2 4.5
2017-Jul-20 02:00N 37°49' W 122°25'0 0.0
2017-Jul-20 01:30N 37°49' W 122°25'3 5.3
2017-Jul-20 01:01N 37°49' W 122°28'3 5.3
2017-Jul-20 00:30N 37°49' W 122°25'1 1.9
2017-Jul-20 00:00N 37°49' W 122°25'1 2.6
2017-Jul-19 23:30N 37°49' W 122°27'2 3.1
2017-Jul-19 23:01N 37°49' W 122°25'0 0.0
2017-Jul-19 22:30N 37°49' W 122°25'1 1.8
2017-Jul-19 22:00N 37°48' W 122°24'2 3.5
2017-Jul-19 21:31N 37°49' W 122°25'1 2.8
2017-Jul-19 21:00N 37°49' W 122°27'2 3.3
2017-Jul-19 20:30N 37°49' W 122°25'0 0.0
2017-Jul-19 20:00N 37°49' W 122°25'2 4.7
2017-Jul-19 19:30N 37°49' W 122°27'2 4.7
2017-Jul-19 19:00N 37°49' W 122°25'1 2.3
2017-Jul-19 18:30N 37°50' W 122°25'1 2.8
2017-Jul-19 18:00N 37°49' W 122°27'2 3.3
2017-Jul-19 17:30N 37°49' W 122°25'0 0.0
2017-Jul-19 02:56N 37°49' W 122°25'2 5.7
2017-Jul-19 02:30N 37°50' W 122°27'2 4.2
2017-Jul-19 01:56N 37°49' W 122°25'0 0.0
2017-Jul-19 01:30N 37°49' W 122°25'3 5.2
2017-Jul-19 01:00N 37°49' W 122°28'3 4.8
2017-Jul-19 00:28N 37°49' W 122°25'1 2.0
2017-Jul-19 00:00N 37°49' W 122°25'1 2.7
2017-Jul-18 23:30N 37°49' W 122°27'2 2.8
2017-Jul-18 22:56N 37°49' W 122°25'0 0.0
2017-Jul-18 22:29N 37°49' W 122°25'1 2.2
2017-Jul-18 22:00N 37°48' W 122°23'2 4.0
2017-Jul-18 21:30N 37°49' W 122°25'1 2.8
2017-Jul-18 21:00N 37°49' W 122°27'2 3.4
2017-Jul-18 20:28N 37°49' W 122°25'0 0.0
2017-Jul-18 19:59N 37°49' W 122°25'2 5.1
2017-Jul-18 19:30N 37°50' W 122°27'2 4.6
2017-Jul-18 18:59N 37°49' W 122°25'1 2.4
2017-Jul-18 18:30N 37°50' W 122°25'2 3.4
2017-Jul-18 18:00N 37°49' W 122°27'2 0.1
2017-Jul-18 02:56N 37°49' W 122°25'2 5.1
2017-Jul-18 02:30N 37°50' W 122°27'2 4.3
2017-Jul-18 02:00N 37°49' W 122°25'0 0.0
2017-Jul-18 01:30N 37°49' W 122°25'3 5.1
2017-Jul-18 01:00N 37°50' W 122°28'3 5.1
2017-Jul-18 00:30N 37°49' W 122°25'1 1.7
2017-Jul-18 00:00N 37°49' W 122°25'1 2.8
2017-Jul-17 23:30N 37°49' W 122°27'2 3.3
2017-Jul-17 23:00N 37°49' W 122°25'0 0.0
2017-Jul-17 22:30N 37°49' W 122°25'1 2.3
2017-Jul-17 22:00N 37°48' W 122°23'2 4.2
2017-Jul-17 21:30N 37°49' W 122°25'1 2.7
2017-Jul-17 21:00N 37°49' W 122°27'2 3.4
2017-Jul-17 20:30N 37°49' W 122°25'0 0.0
2017-Jul-17 20:00N 37°49' W 122°25'2 4.4
2017-Jul-17 19:30N 37°49' W 122°27'2 4.4
2017-Jul-17 19:00N 37°49' W 122°25'1 2.2
2017-Jul-17 18:31N 37°50' W 122°25'2 3.2
2017-Jul-17 18:01N 37°49' W 122°27'2 3.5
2017-Jul-17 17:30N 37°49' W 122°25'0 0.0
2017-Jul-17 04:09N 37°49' W 122°25'0 0.5
2017-Jul-17 04:01N 37°49' W 122°25'3 6.5
2017-Jul-17 03:30N 37°49' W 122°29'510.4
2017-Jul-17 03:00N 37°50' W 122°22'4 7.0
2017-Jul-17 02:30N 37°48' W 122°19'4 9.0
2017-Jul-17 02:00N 37°43' W 122°21'4 8.0
2017-Jul-17 01:30N 37°47' W 122°23'2 4.1
2017-Jul-17 01:00N 37°49' W 122°25'0 0.0
2017-Jul-17 00:30N 37°49' W 122°25'0 0.0
2017-Jul-17 00:00N 37°49' W 122°25'0 0.0
2017-Jul-16 23:30N 37°49' W 122°25'0 0.0
2017-Jul-16 23:00N 37°49' W 122°25'0 0.0
2017-Jul-16 22:30N 37°49' W 122°25'3 5.4
2017-Jul-16 22:00N 37°49' W 122°28'3 5.4
2017-Jul-16 21:30N 37°49' W 122°25'0 0.0
2017-Jul-16 21:00N 37°49' W 122°25'0 0.0
2017-Jul-16 20:30N 37°49' W 122°25'2 4.4
2017-Jul-16 20:00N 37°49' W 122°27'2 4.4
2017-Jul-16 19:30N 37°49' W 122°25'0 0.0
2017-Jul-16 04:33N 37°49' W 122°25'0 0.0
2017-Jul-16 04:30N 37°49' W 122°25'1 2.3
2017-Jul-16 04:01N 37°50' W 122°25'3 5.4
2017-Jul-16 03:31N 37°49' W 122°29'3 6.4
2017-Jul-16 03:01N 37°49' W 122°25'0 0.0
2017-Jul-16 02:30N 37°49' W 122°25'0 0.0
2017-Jul-16 02:00N 37°49' W 122°25'3 6.0
2017-Jul-16 01:30N 37°49' W 122°28'3 6.1
2017-Jul-16 01:00N 37°49' W 122°25'1 2.7
2017-Jul-16 00:31N 37°50' W 122°25'1 2.2
2017-Jul-16 00:01N 37°49' W 122°26'1 2.6
2017-Jul-15 23:31N 37°49' W 122°25'0 0.0
2017-Jul-15 23:01N 37°49' W 122°25'3 6.6
2017-Jul-15 22:31N 37°49' W 122°29'3 6.6
2017-Jul-15 22:00N 37°49' W 122°25'0 0.0
2017-Jul-15 21:30N 37°49' W 122°25'0 0.0
2017-Jul-15 21:00N 37°49' W 122°25'3 6.6
2017-Jul-15 20:31N 37°49' W 122°29'3 6.5
2017-Jul-15 20:00N 37°49' W 122°25'1 1.3
2017-Jul-15 19:30N 37°49' W 122°24'2 3.9
2017-Jul-15 19:00N 37°50' W 122°26'1 1.5
2017-Jul-15 18:30N 37°49' W 122°26'1 2.5
2017-Jul-15 18:00N 37°49' W 122°25'0 0.0
2017-Jul-15 17:30N 37°49' W 122°25'0 0.0
2017-Jul-15 17:00N 37°49' W 122°25'  
Track history (hours):
 
Tides and Currents Weather Stations Pressure Air Temp Water Temp Dewpoint Dewpoint Depression Visibility Wind Speed Wind Dir Waves Ship Positions

Harbor Emperor

Owner: BLUE & GOLD FLEET, SAN FRANCISCO, CA. More information available from US FCC via Universal Licensing System and Coast Guard Vessel Documentation Center.

Last reported at 2017-Jul-25 16:29 UTC. Time now 2017-Jul-25 16:39 UTC.
Position N 37°49' W 122°25'.

Length 31 m.

Type: Passenger vessel. MMSI: 366985270.

Date/timePositionNaut miles runAvg speedWind from/ knotsBaromVisibWave heightAir tempDewpointWater temp
2017-Jul-25 16:29N 37°49' W 122°25'0 0.0
2017-Jul-25 15:59N 37°49' W 122°25'0 0.0
2017-Jul-25 15:29N 37°49' W 122°25'0 0.0
2017-Jul-25 14:59N 37°49' W 122°25'0 0.0
2017-Jul-25 13:56N 37°49' W 122°25'0 0.0
2017-Jul-25 13:26N 37°49' W 122°25'0 0.0
2017-Jul-25 12:56N 37°49' W 122°25'0 0.0
2017-Jul-25 12:26N 37°49' W 122°25'0 0.0
2017-Jul-25 11:56N 37°49' W 122°25'0 0.0
2017-Jul-25 11:29N 37°49' W 122°25'0 0.0
2017-Jul-25 10:59N 37°49' W 122°25'0 0.0
2017-Jul-25 10:26N 37°49' W 122°25'0 0.0
2017-Jul-25 09:56N 37°49' W 122°25'0 0.0
2017-Jul-25 09:26N 37°49' W 122°25'0 0.0
2017-Jul-25 08:59N 37°49' W 122°25'0 0.0
2017-Jul-25 08:26N 37°49' W 122°25'0 0.0
2017-Jul-25 07:59N 37°49' W 122°25'0 0.0
2017-Jul-25 07:29N 37°49' W 122°25'0 0.0
2017-Jul-25 06:56N 37°49' W 122°25'0 0.0
2017-Jul-25 06:29N 37°49' W 122°25'0 0.0
2017-Jul-25 05:59N 37°49' W 122°25'0 0.0
2017-Jul-25 05:29N 37°49' W 122°25'0 0.0
2017-Jul-25 04:59N 37°49' W 122°25'0 0.0
2017-Jul-25 04:29N 37°49' W 122°25'0 0.0
2017-Jul-25 03:59N 37°49' W 122°25'0 0.0
2017-Jul-25 03:29N 37°49' W 122°25'0 0.0
2017-Jul-25 02:59N 37°49' W 122°25'0 0.0
2017-Jul-25 02:26N 37°49' W 122°25'0 0.0
2017-Jul-25 01:55N 37°49' W 122°25'2 5.1
2017-Jul-25 01:30N 37°50' W 122°27'2 4.3
2017-Jul-25 01:01N 37°49' W 122°25'1 1.9
2017-Jul-25 00:30N 37°49' W 122°25'1 2.9
2017-Jul-25 00:01N 37°49' W 122°27'2 4.2
2017-Jul-24 23:30N 37°49' W 122°25'0 0.0
2017-Jul-24 23:00N 37°49' W 122°25'3 5.3
2017-Jul-24 22:30N 37°50' W 122°28'3 5.2
2017-Jul-24 22:00N 37°49' W 122°25'0 0.0
2017-Jul-24 21:30N 37°49' W 122°25'0 0.0
2017-Jul-24 21:00N 37°49' W 122°25'3 5.5
2017-Jul-24 20:31N 37°49' W 122°28'3 5.5
2017-Jul-24 20:01N 37°49' W 122°25'1 2.0
2017-Jul-24 19:31N 37°48' W 122°23'2 3.8
2017-Jul-24 19:00N 37°50' W 122°25'1 2.1
2017-Jul-24 18:30N 37°49' W 122°26'1 2.5
2017-Jul-24 17:58N 37°49' W 122°25'0 0.0
2017-Jul-24 17:28N 37°49' W 122°25'0 0.0
2017-Jul-24 16:58N 37°49' W 122°25'0 0.0
2017-Jul-24 16:28N 37°49' W 122°25'0 0.0
2017-Jul-24 15:46N 37°49' W 122°25'0 0.0
2017-Jul-24 12:46N 37°49' W 122°25'0 0.0
2017-Jul-24 12:28N 37°49' W 122°25'0 0.0
2017-Jul-24 11:58N 37°49' W 122°25'0 0.0
2017-Jul-24 11:28N 37°49' W 122°25'0 0.0
2017-Jul-24 10:58N 37°49' W 122°25'0 0.0
2017-Jul-24 10:28N 37°49' W 122°25'0 0.0
2017-Jul-24 09:58N 37°49' W 122°25'0 0.0
2017-Jul-24 09:28N 37°49' W 122°25'0 0.0
2017-Jul-24 08:58N 37°49' W 122°25'0 0.0
2017-Jul-24 08:28N 37°49' W 122°25'0 0.0
2017-Jul-24 07:58N 37°49' W 122°25'0 0.0
2017-Jul-24 07:28N 37°49' W 122°25'0 0.0
2017-Jul-24 06:58N 37°49' W 122°25'0 0.0
2017-Jul-24 06:28N 37°49' W 122°25'0 0.0
2017-Jul-24 05:58N 37°49' W 122°25'0 0.0
2017-Jul-24 05:28N 37°49' W 122°25'0 0.0
2017-Jul-24 04:58N 37°49' W 122°25'0 0.0
2017-Jul-24 04:28N 37°49' W 122°25'0 0.0
2017-Jul-24 03:58N 37°49' W 122°25'0 0.0
2017-Jul-24 03:28N 37°49' W 122°25'0 0.0
2017-Jul-24 02:58N 37°49' W 122°25'0 0.0
2017-Jul-24 02:28N 37°49' W 122°25'0 0.0
2017-Jul-24 02:00N 37°49' W 122°25'0 0.0
2017-Jul-24 01:30N 37°49' W 122°25'2 3.7
2017-Jul-24 01:00N 37°50' W 122°27'2 3.7
2017-Jul-24 00:30N 37°49' W 122°25'1 1.0
2017-Jul-24 00:00N 37°49' W 122°25'3 5.8
2017-Jul-23 23:31N 37°49' W 122°28'3 5.8
2017-Jul-23 23:00N 37°49' W 122°25'0 0.0
2017-Jul-23 22:30N 37°49' W 122°25'1 1.6
2017-Jul-23 22:00N 37°48' W 122°24'2 4.4
2017-Jul-23 21:30N 37°50' W 122°26'2 3.4
2017-Jul-23 21:00N 37°49' W 122°28'2 4.7
2017-Jul-23 20:30N 37°49' W 122°25'0 0.0
2017-Jul-23 20:00N 37°49' W 122°25'2 4.6
2017-Jul-23 19:30N 37°49' W 122°27'2 4.6
2017-Jul-23 19:00N 37°49' W 122°25'0 0.5
2017-Jul-23 18:31N 37°49' W 122°24'2 4.7
2017-Jul-23 18:00N 37°49' W 122°27'2 4.3
2017-Jul-23 17:30N 37°49' W 122°25'0 0.0
2017-Jul-23 16:59N 37°49' W 122°25'0 0.0
2017-Jul-23 16:29N 37°49' W 122°25'0 0.0
2017-Jul-23 15:56N 37°49' W 122°25'0 0.0
2017-Jul-23 15:26N 37°49' W 122°25'0 0.0
2017-Jul-23 14:53N 37°49' W 122°25'0 0.0
2017-Jul-23 14:29N 37°49' W 122°25'0 0.0
2017-Jul-23 13:59N 37°49' W 122°25'0 0.0
2017-Jul-23 13:29N 37°49' W 122°25'0 0.0
2017-Jul-23 12:59N 37°49' W 122°25'0 0.0
2017-Jul-23 12:29N 37°49' W 122°25'0 0.0
2017-Jul-23 11:59N 37°49' W 122°25'0 0.0
2017-Jul-23 11:29N 37°49' W 122°25'0 0.0
2017-Jul-23 10:56N 37°49' W 122°25'0 0.0
2017-Jul-23 10:29N 37°49' W 122°25'0 0.0
2017-Jul-23 09:59N 37°49' W 122°25'0 0.0
2017-Jul-23 09:29N 37°49' W 122°25'0 0.0
2017-Jul-23 08:59N 37°49' W 122°25'0 0.0
2017-Jul-23 08:29N 37°49' W 122°25'0 0.0
2017-Jul-23 07:50N 37°49' W 122°25'0 0.0
2017-Jul-23 07:26N 37°49' W 122°25'0 0.0
2017-Jul-23 06:53N 37°49' W 122°25'0 0.0
2017-Jul-23 06:29N 37°49' W 122°25'0 0.0
2017-Jul-23 05:59N 37°49' W 122°25'0 0.0
2017-Jul-23 05:26N 37°49' W 122°25'0 0.0
2017-Jul-23 04:56N 37°49' W 122°25'0 0.0
2017-Jul-23 04:29N 37°49' W 122°25'0 0.0
2017-Jul-23 03:56N 37°49' W 122°25'0 0.0
2017-Jul-23 03:29N 37°49' W 122°25'0 0.0
2017-Jul-23 02:58N 37°49' W 122°25'2 4.5
2017-Jul-23 02:31N 37°49' W 122°27'2 4.0
2017-Jul-23 02:01N 37°49' W 122°25'0 0.0
2017-Jul-23 01:30N 37°49' W 122°25'2 4.3
2017-Jul-23 01:01N 37°49' W 122°27'2 4.2
2017-Jul-23 00:31N 37°49' W 122°25'0 0.8
2017-Jul-23 00:01N 37°49' W 122°24'3 5.0
2017-Jul-22 23:31N 37°49' W 122°28'2 4.7
2017-Jul-22 23:01N 37°49' W 122°25'0 0.0
2017-Jul-22 22:31N 37°49' W 122°25'1 1.5
2017-Jul-22 22:00N 37°48' W 122°24'2 4.1
2017-Jul-22 21:30N 37°50' W 122°26'2 3.5
2017-Jul-22 21:01N 37°49' W 122°28'2 4.8
2017-Jul-22 20:30N 37°49' W 122°25'0 0.0
2017-Jul-22 19:55N 37°49' W 122°25'2 5.5
2017-Jul-22 19:30N 37°49' W 122°27'2 4.4
2017-Jul-22 18:59N 37°49' W 122°25'0 1.0
2017-Jul-22 18:30N 37°49' W 122°24'2 4.2
2017-Jul-22 18:00N 37°49' W 122°27'2 0.1
2017-Jul-22 02:57N 37°49' W 122°25'3 6.4
2017-Jul-22 02:30N 37°49' W 122°28'3 5.6
2017-Jul-22 02:00N 37°49' W 122°25'0 0.0
2017-Jul-22 01:28N 37°49' W 122°25'3 5.9
2017-Jul-22 01:01N 37°49' W 122°28'3 5.0
2017-Jul-22 00:28N 37°49' W 122°25'1 1.6
2017-Jul-22 00:00N 37°49' W 122°25'2 3.0
2017-Jul-21 23:30N 37°49' W 122°26'1 2.7
2017-Jul-21 22:58N 37°49' W 122°25'0 0.0
2017-Jul-21 22:28N 37°49' W 122°25'1 1.3
2017-Jul-21 22:00N 37°49' W 122°24'1 2.5
2017-Jul-21 21:30N 37°49' W 122°25'1 2.8
2017-Jul-21 21:00N 37°49' W 122°27'2 3.3
2017-Jul-21 20:28N 37°49' W 122°25'0 0.0
2017-Jul-21 19:58N 37°49' W 122°25'2 5.0
2017-Jul-21 19:30N 37°49' W 122°27'2 4.5
2017-Jul-21 19:00N 37°49' W 122°25'0 0.5
2017-Jul-21 18:30N 37°49' W 122°25'2 3.6
2017-Jul-21 18:01N 37°49' W 122°27'2 3.2
2017-Jul-21 17:28N 37°49' W 122°25'0 0.0
2017-Jul-21 02:55N 37°49' W 122°25'2 5.7
2017-Jul-21 02:31N 37°49' W 122°27'2 4.7
2017-Jul-21 02:00N 37°49' W 122°25'0 0.0
2017-Jul-21 01:30N 37°49' W 122°25'3 5.8
2017-Jul-21 01:00N 37°49' W 122°28'3 5.8
2017-Jul-21 00:30N 37°49' W 122°25'1 2.1
2017-Jul-21 00:00N 37°50' W 122°25'1 2.7
2017-Jul-20 23:30N 37°49' W 122°27'2 3.1
2017-Jul-20 23:00N 37°49' W 122°25'0 0.0
2017-Jul-20 22:30N 37°49' W 122°25'1 2.1
2017-Jul-20 22:00N 37°48' W 122°23'2 4.0
2017-Jul-20 21:30N 37°49' W 122°25'2 3.2
2017-Jul-20 21:00N 37°49' W 122°27'2 4.0
2017-Jul-20 20:30N 37°49' W 122°25'0 0.0
2017-Jul-20 20:00N 37°49' W 122°25'2 4.8
2017-Jul-20 19:30N 37°49' W 122°27'2 4.8
2017-Jul-20 19:00N 37°49' W 122°25'1 2.2
2017-Jul-20 18:30N 37°50' W 122°25'1 2.6
2017-Jul-20 18:01N 37°49' W 122°26'1 2.9
2017-Jul-20 17:30N 37°49' W 122°25'0 0.0
2017-Jul-20 02:56N 37°49' W 122°25'2 5.4
2017-Jul-20 02:30N 37°50' W 122°27'2 4.5
2017-Jul-20 02:00N 37°49' W 122°25'0 0.0
2017-Jul-20 01:30N 37°49' W 122°25'3 5.3
2017-Jul-20 01:01N 37°49' W 122°28'3 5.3
2017-Jul-20 00:30N 37°49' W 122°25'1 1.9
2017-Jul-20 00:00N 37°49' W 122°25'1 2.6
2017-Jul-19 23:30N 37°49' W 122°27'2 3.1
2017-Jul-19 23:01N 37°49' W 122°25'0 0.0
2017-Jul-19 22:30N 37°49' W 122°25'1 1.8
2017-Jul-19 22:00N 37°48' W 122°24'2 3.5
2017-Jul-19 21:31N 37°49' W 122°25'1 2.8
2017-Jul-19 21:00N 37°49' W 122°27'2 3.3
2017-Jul-19 20:30N 37°49' W 122°25'0 0.0
2017-Jul-19 20:00N 37°49' W 122°25'2 4.7
2017-Jul-19 19:30N 37°49' W 122°27'2 4.7
2017-Jul-19 19:00N 37°49' W 122°25'1 2.3
2017-Jul-19 18:30N 37°50' W 122°25'1 2.8
2017-Jul-19 18:00N 37°49' W 122°27'2 3.3
2017-Jul-19 17:30N 37°49' W 122°25'0 0.0
2017-Jul-19 02:56N 37°49' W 122°25'2 5.7
2017-Jul-19 02:30N 37°50' W 122°27'2 4.2
2017-Jul-19 01:56N 37°49' W 122°25'0 0.0
2017-Jul-19 01:30N 37°49' W 122°25'3 5.2
2017-Jul-19 01:00N 37°49' W 122°28'3 4.8
2017-Jul-19 00:28N 37°49' W 122°25'1 2.0
2017-Jul-19 00:00N 37°49' W 122°25'1 2.7
2017-Jul-18 23:30N 37°49' W 122°27'2 2.8
2017-Jul-18 22:56N 37°49' W 122°25'0 0.0
2017-Jul-18 22:29N 37°49' W 122°25'1 2.2
2017-Jul-18 22:00N 37°48' W 122°23'2 4.0
2017-Jul-18 21:30N 37°49' W 122°25'1 2.8
2017-Jul-18 21:00N 37°49' W 122°27'2 3.4
2017-Jul-18 20:28N 37°49' W 122°25'0 0.0
2017-Jul-18 19:59N 37°49' W 122°25'2 5.1
2017-Jul-18 19:30N 37°50' W 122°27'2 4.6
2017-Jul-18 18:59N 37°49' W 122°25'1 2.4
2017-Jul-18 18:30N 37°50' W 122°25'2 3.4
2017-Jul-18 18:00N 37°49' W 122°27'2 0.1
2017-Jul-18 02:56N 37°49' W 122°25'2 5.1
2017-Jul-18 02:30N 37°50' W 122°27'2 4.3
2017-Jul-18 02:00N 37°49' W 122°25'0 0.0
2017-Jul-18 01:30N 37°49' W 122°25'3 5.1
2017-Jul-18 01:00N 37°50' W 122°28'3 5.1
2017-Jul-18 00:30N 37°49' W 122°25'1 1.7
2017-Jul-18 00:00N 37°49' W 122°25'1 2.8
2017-Jul-17 23:30N 37°49' W 122°27'2 3.3
2017-Jul-17 23:00N 37°49' W 122°25'0 0.0
2017-Jul-17 22:30N 37°49' W 122°25'1 2.3
2017-Jul-17 22:00N 37°48' W 122°23'2 4.2
2017-Jul-17 21:30N 37°49' W 122°25'1 2.7
2017-Jul-17 21:00N 37°49' W 122°27'2 3.4
2017-Jul-17 20:30N 37°49' W 122°25'0 0.0
2017-Jul-17 20:00N 37°49' W 122°25'2 4.4
2017-Jul-17 19:30N 37°49' W 122°27'2 4.4
2017-Jul-17 19:00N 37°49' W 122°25'1 2.2
2017-Jul-17 18:31N 37°50' W 122°25'2 3.2
2017-Jul-17 18:01N 37°49' W 122°27'2 3.5
2017-Jul-17 17:30N 37°49' W 122°25'0 0.0
2017-Jul-17 04:09N 37°49' W 122°25'0 0.5
2017-Jul-17 04:01N 37°49' W 122°25'3 6.5
2017-Jul-17 03:30N 37°49' W 122°29'510.4
2017-Jul-17 03:00N 37°50' W 122°22'4 7.0
2017-Jul-17 02:30N 37°48' W 122°19'4 9.0
2017-Jul-17 02:00N 37°43' W 122°21'4 8.0
2017-Jul-17 01:30N 37°47' W 122°23'2 4.1
2017-Jul-17 01:00N 37°49' W 122°25'0 0.0
2017-Jul-17 00:30N 37°49' W 122°25'0 0.0
2017-Jul-17 00:00N 37°49' W 122°25'0 0.0
2017-Jul-16 23:30N 37°49' W 122°25'0 0.0
2017-Jul-16 23:00N 37°49' W 122°25'0 0.0
2017-Jul-16 22:30N 37°49' W 122°25'3 5.4
2017-Jul-16 22:00N 37°49' W 122°28'3 5.4
2017-Jul-16 21:30N 37°49' W 122°25'0 0.0
2017-Jul-16 21:00N 37°49' W 122°25'0 0.0
2017-Jul-16 20:30N 37°49' W 122°25'2 4.4
2017-Jul-16 20:00N 37°49' W 122°27'2 4.4
2017-Jul-16 19:30N 37°49' W 122°25'0 0.0
2017-Jul-16 04:33N 37°49' W 122°25'0 0.0
2017-Jul-16 04:30N 37°49' W 122°25'1 2.3
2017-Jul-16 04:01N 37°50' W 122°25'3 5.4
2017-Jul-16 03:31N 37°49' W 122°29'3 6.4
2017-Jul-16 03:01N 37°49' W 122°25'0 0.0
2017-Jul-16 02:30N 37°49' W 122°25'0 0.0
2017-Jul-16 02:00N 37°49' W 122°25'3 6.0
2017-Jul-16 01:30N 37°49' W 122°28'3 6.1
2017-Jul-16 01:00N 37°49' W 122°25'1 2.7
2017-Jul-16 00:31N 37°50' W 122°25'1 2.2
2017-Jul-16 00:01N 37°49' W 122°26'1 2.6
2017-Jul-15 23:31N 37°49' W 122°25'0 0.0
2017-Jul-15 23:01N 37°49' W 122°25'3 6.6
2017-Jul-15 22:31N 37°49' W 122°29'3 6.6
2017-Jul-15 22:00N 37°49' W 122°25'0 0.0
2017-Jul-15 21:30N 37°49' W 122°25'0 0.0
2017-Jul-15 21:00N 37°49' W 122°25'3 6.6
2017-Jul-15 20:31N 37°49' W 122°29'3 6.5
2017-Jul-15 20:00N 37°49' W 122°25'1 1.3
2017-Jul-15 19:30N 37°49' W 122°24'2 3.9
2017-Jul-15 19:00N 37°50' W 122°26'1 1.5
2017-Jul-15 18:30N 37°49' W 122°26'1 2.5
2017-Jul-15 18:00N 37°49' W 122°25'0 0.0
2017-Jul-15 17:30N 37°49' W 122°25'0 0.0
2017-Jul-15 17:00N 37°49' W 122°25'  

Dump ship's entire track history